sensor_id;sensor_type;location;lat;lon;timestamp;temperature;humidity
15072;DHT22;7635;56.696;13.002;2023-08-20T00:01:12;20.00;99.90
15072;DHT22;7635;56.696;13.002;2023-08-20T00:03:41;20.00;99.90
15072;DHT22;7635;56.696;13.002;2023-08-20T00:06:09;19.90;99.90
15072;DHT22;7635;56.696;13.002;2023-08-20T00:08:36;19.90;99.90
15072;DHT22;7635;56.696;13.002;2023-08-20T00:11:03;19.80;99.90
15072;DHT22;7635;56.696;13.002;2023-08-20T00:13:31;19.80;99.90
15072;DHT22;7635;56.696;13.002;2023-08-20T00:15:58;19.80;99.90
15072;DHT22;7635;56.696;13.002;2023-08-20T00:18:25;19.70;99.90
15072;DHT22;7635;56.696;13.002;2023-08-20T00:20:53;19.70;99.90
15072;DHT22;7635;56.696;13.002;2023-08-20T00:23:20;19.70;99.90
15072;DHT22;7635;56.696;13.002;2023-08-20T00:25:48;19.70;99.90
15072;DHT22;7635;56.696;13.002;2023-08-20T00:28:14;19.60;99.90
15072;DHT22;7635;56.696;13.002;2023-08-20T00:30:42;19.60;99.90
15072;DHT22;7635;56.696;13.002;2023-08-20T00:33:09;19.60;99.90
15072;DHT22;7635;56.696;13.002;2023-08-20T00:35:36;19.60;99.90
15072;DHT22;7635;56.696;13.002;2023-08-20T00:38:03;19.60;99.90
15072;DHT22;7635;56.696;13.002;2023-08-20T00:40:30;19.60;99.90
15072;DHT22;7635;56.696;13.002;2023-08-20T00:42:57;19.60;99.90
15072;DHT22;7635;56.696;13.002;2023-08-20T00:45:24;19.60;99.90
15072;DHT22;7635;56.696;13.002;2023-08-20T00:47:53;19.60;99.90
15072;DHT22;7635;56.696;13.002;2023-08-20T00:50:20;19.60;99.90
15072;DHT22;7635;56.696;13.002;2023-08-20T00:52:47;19.60;99.90
15072;DHT22;7635;56.696;13.002;2023-08-20T00:55:14;19.50;99.90
15072;DHT22;7635;56.696;13.002;2023-08-20T00:57:42;19.50;99.90
15072;DHT22;7635;56.696;13.002;2023-08-20T01:00:09;19.50;99.90
15072;DHT22;7635;56.696;13.002;2023-08-20T01:02:37;19.50;99.90
15072;DHT22;7635;56.696;13.002;2023-08-20T01:05:07;19.50;99.90
15072;DHT22;7635;56.696;13.002;2023-08-20T01:07:42;19.50;99.90
15072;DHT22;7635;56.696;13.002;2023-08-20T01:10:18;19.50;99.90
15072;DHT22;7635;56.696;13.002;2023-08-20T01:12:46;19.50;99.90
15072;DHT22;7635;56.696;13.002;2023-08-20T01:15:13;19.50;99.90
15072;DHT22;7635;56.696;13.002;2023-08-20T01:17:40;19.40;99.90
15072;DHT22;7635;56.696;13.002;2023-08-20T01:20:10;19.40;99.90
15072;DHT22;7635;56.696;13.002;2023-08-20T01:22:58;19.40;99.90
15072;DHT22;7635;56.696;13.002;2023-08-20T01:25:35;19.40;99.90
15072;DHT22;7635;56.696;13.002;2023-08-20T01:28:18;19.40;99.90
15072;DHT22;7635;56.696;13.002;2023-08-20T01:30:45;19.40;99.90
15072;DHT22;7635;56.696;13.002;2023-08-20T01:33:13;19.40;99.90
15072;DHT22;7635;56.696;13.002;2023-08-20T01:35:40;19.40;99.90
15072;DHT22;7635;56.696;13.002;2023-08-20T01:38:07;19.30;99.90
15072;DHT22;7635;56.696;13.002;2023-08-20T01:40:34;19.40;99.90
15072;DHT22;7635;56.696;13.002;2023-08-20T01:43:00;19.30;99.90
15072;DHT22;7635;56.696;13.002;2023-08-20T01:45:28;19.30;99.90
15072;DHT22;7635;56.696;13.002;2023-08-20T01:47:55;19.30;99.90
15072;DHT22;7635;56.696;13.002;2023-08-20T01:50:22;19.30;99.90
15072;DHT22;7635;56.696;13.002;2023-08-20T01:52:48;19.30;99.90
15072;DHT22;7635;56.696;13.002;2023-08-20T01:55:15;19.30;99.90
15072;DHT22;7635;56.696;13.002;2023-08-20T01:57:42;19.20;99.90
15072;DHT22;7635;56.696;13.002;2023-08-20T02:00:10;19.20;99.90
15072;DHT22;7635;56.696;13.002;2023-08-20T02:02:38;19.20;99.90
15072;DHT22;7635;56.696;13.002;2023-08-20T02:05:05;19.20;99.90
15072;DHT22;7635;56.696;13.002;2023-08-20T02:07:32;19.20;99.90
15072;DHT22;7635;56.696;13.002;2023-08-20T02:09:59;19.20;99.90
15072;DHT22;7635;56.696;13.002;2023-08-20T02:12:26;19.20;99.90
15072;DHT22;7635;56.696;13.002;2023-08-20T02:14:52;19.20;99.90
15072;DHT22;7635;56.696;13.002;2023-08-20T02:17:19;19.20;99.90
15072;DHT22;7635;56.696;13.002;2023-08-20T02:19:47;19.30;99.90
15072;DHT22;7635;56.696;13.002;2023-08-20T02:22:14;19.20;99.90
15072;DHT22;7635;56.696;13.002;2023-08-20T02:24:40;19.20;99.90
15072;DHT22;7635;56.696;13.002;2023-08-20T02:27:07;19.30;99.90
15072;DHT22;7635;56.696;13.002;2023-08-20T02:29:34;19.20;99.90
15072;DHT22;7635;56.696;13.002;2023-08-20T02:32:00;19.20;99.90
15072;DHT22;7635;56.696;13.002;2023-08-20T02:34:27;19.20;99.90
15072;DHT22;7635;56.696;13.002;2023-08-20T02:36:55;19.20;99.90
15072;DHT22;7635;56.696;13.002;2023-08-20T02:39:22;19.20;99.90
15072;DHT22;7635;56.696;13.002;2023-08-20T02:41:50;19.20;99.90
15072;DHT22;7635;56.696;13.002;2023-08-20T02:44:17;19.20;99.90
15072;DHT22;7635;56.696;13.002;2023-08-20T02:46:43;19.20;99.90
15072;DHT22;7635;56.696;13.002;2023-08-20T02:49:10;19.20;99.90
15072;DHT22;7635;56.696;13.002;2023-08-20T02:51:37;19.10;99.90
15072;DHT22;7635;56.696;13.002;2023-08-20T02:54:05;19.10;99.90
15072;DHT22;7635;56.696;13.002;2023-08-20T02:56:32;19.10;99.90
15072;DHT22;7635;56.696;13.002;2023-08-20T02:58:59;19.10;99.90
15072;DHT22;7635;56.696;13.002;2023-08-20T03:01:26;19.10;99.90
15072;DHT22;7635;56.696;13.002;2023-08-20T03:03:53;19.10;99.90
15072;DHT22;7635;56.696;13.002;2023-08-20T03:06:20;19.10;99.90
15072;DHT22;7635;56.696;13.002;2023-08-20T03:08:46;19.10;99.90
15072;DHT22;7635;56.696;13.002;2023-08-20T03:11:15;19.10;99.90
15072;DHT22;7635;56.696;13.002;2023-08-20T03:13:41;19.10;99.90
15072;DHT22;7635;56.696;13.002;2023-08-20T03:16:08;19.10;99.90
15072;DHT22;7635;56.696;13.002;2023-08-20T03:18:35;19.10;99.90
15072;DHT22;7635;56.696;13.002;2023-08-20T03:21:01;19.00;99.90
15072;DHT22;7635;56.696;13.002;2023-08-20T03:23:29;19.00;99.90
15072;DHT22;7635;56.696;13.002;2023-08-20T03:25:57;19.00;99.90
15072;DHT22;7635;56.696;13.002;2023-08-20T03:28:25;19.00;99.90
15072;DHT22;7635;56.696;13.002;2023-08-20T03:30:52;19.00;99.90
15072;DHT22;7635;56.696;13.002;2023-08-20T03:33:18;19.00;99.90
15072;DHT22;7635;56.696;13.002;2023-08-20T03:35:45;19.00;99.90
15072;DHT22;7635;56.696;13.002;2023-08-20T03:38:12;19.00;99.90
15072;DHT22;7635;56.696;13.002;2023-08-20T03:40:39;19.00;99.90
15072;DHT22;7635;56.696;13.002;2023-08-20T03:43:05;19.00;99.90
15072;DHT22;7635;56.696;13.002;2023-08-20T03:45:33;19.00;99.90
15072;DHT22;7635;56.696;13.002;2023-08-20T03:48:00;19.00;99.90
15072;DHT22;7635;56.696;13.002;2023-08-20T03:50:27;19.00;99.90
15072;DHT22;7635;56.696;13.002;2023-08-20T03:52:53;19.00;99.90
15072;DHT22;7635;56.696;13.002;2023-08-20T03:55:20;19.00;99.90
15072;DHT22;7635;56.696;13.002;2023-08-20T03:57:47;18.90;99.90
15072;DHT22;7635;56.696;13.002;2023-08-20T04:00:14;18.90;99.90
15072;DHT22;7635;56.696;13.002;2023-08-20T04:02:42;18.90;99.90
15072;DHT22;7635;56.696;13.002;2023-08-20T04:05:08;18.90;99.90
15072;DHT22;7635;56.696;13.002;2023-08-20T04:07:35;18.90;99.90
15072;DHT22;7635;56.696;13.002;2023-08-20T04:10:02;18.90;99.90
15072;DHT22;7635;56.696;13.002;2023-08-20T04:12:29;18.90;99.90
15072;DHT22;7635;56.696;13.002;2023-08-20T04:14:55;18.90;99.90
15072;DHT22;7635;56.696;13.002;2023-08-20T04:17:22;18.90;99.90
15072;DHT22;7635;56.696;13.002;2023-08-20T04:19:50;18.90;99.90
15072;DHT22;7635;56.696;13.002;2023-08-20T04:22:17;18.80;99.90
15072;DHT22;7635;56.696;13.002;2023-08-20T04:24:43;18.80;99.90
15072;DHT22;7635;56.696;13.002;2023-08-20T04:27:10;18.80;99.90
15072;DHT22;7635;56.696;13.002;2023-08-20T04:29:37;18.80;99.90
15072;DHT22;7635;56.696;13.002;2023-08-20T04:32:04;18.80;99.90
15072;DHT22;7635;56.696;13.002;2023-08-20T04:34:31;18.80;99.90
15072;DHT22;7635;56.696;13.002;2023-08-20T04:36:59;18.90;99.90
15072;DHT22;7635;56.696;13.002;2023-08-20T04:39:26;18.80;99.90
15072;DHT22;7635;56.696;13.002;2023-08-20T04:41:53;18.80;99.90
15072;DHT22;7635;56.696;13.002;2023-08-20T04:44:22;18.80;99.90
15072;DHT22;7635;56.696;13.002;2023-08-20T04:46:49;18.80;99.90
15072;DHT22;7635;56.696;13.002;2023-08-20T04:49:16;18.80;99.90
15072;DHT22;7635;56.696;13.002;2023-08-20T04:51:42;18.80;99.90
15072;DHT22;7635;56.696;13.002;2023-08-20T04:54:10;18.70;99.90
15072;DHT22;7635;56.696;13.002;2023-08-20T04:56:37;18.80;99.90
15072;DHT22;7635;56.696;13.002;2023-08-20T04:59:04;18.70;99.90
15072;DHT22;7635;56.696;13.002;2023-08-20T05:01:30;18.70;99.90
15072;DHT22;7635;56.696;13.002;2023-08-20T05:03:57;18.70;99.90
15072;DHT22;7635;56.696;13.002;2023-08-20T05:06:24;18.70;99.90
15072;DHT22;7635;56.696;13.002;2023-08-20T05:08:50;18.70;99.90
15072;DHT22;7635;56.696;13.002;2023-08-20T05:11:18;18.70;99.90
15072;DHT22;7635;56.696;13.002;2023-08-20T05:13:46;18.70;99.90
15072;DHT22;7635;56.696;13.002;2023-08-20T05:16:13;18.70;99.90
15072;DHT22;7635;56.696;13.002;2023-08-20T05:18:40;18.70;99.90
15072;DHT22;7635;56.696;13.002;2023-08-20T05:21:06;18.70;99.90
15072;DHT22;7635;56.696;13.002;2023-08-20T05:23:33;18.70;99.90
15072;DHT22;7635;56.696;13.002;2023-08-20T05:26:00;18.70;99.90
15072;DHT22;7635;56.696;13.002;2023-08-20T05:28:28;18.70;99.90
15072;DHT22;7635;56.696;13.002;2023-08-20T05:30:55;18.70;99.90
15072;DHT22;7635;56.696;13.002;2023-08-20T05:33:22;18.70;99.90
15072;DHT22;7635;56.696;13.002;2023-08-20T05:35:49;18.70;99.90
15072;DHT22;7635;56.696;13.002;2023-08-20T05:38:16;18.70;99.90
15072;DHT22;7635;56.696;13.002;2023-08-20T05:40:43;18.70;99.90
15072;DHT22;7635;56.696;13.002;2023-08-20T05:43:10;18.70;99.90
15072;DHT22;7635;56.696;13.002;2023-08-20T05:45:38;18.70;99.90
15072;DHT22;7635;56.696;13.002;2023-08-20T05:48:05;18.70;99.90
15072;DHT22;7635;56.696;13.002;2023-08-20T05:50:32;18.70;99.90
15072;DHT22;7635;56.696;13.002;2023-08-20T05:52:59;18.70;99.90
15072;DHT22;7635;56.696;13.002;2023-08-20T05:55:26;18.70;99.90
15072;DHT22;7635;56.696;13.002;2023-08-20T05:57:53;18.70;99.90
15072;DHT22;7635;56.696;13.002;2023-08-20T06:00:19;18.70;99.90
15072;DHT22;7635;56.696;13.002;2023-08-20T06:02:47;18.70;99.90
15072;DHT22;7635;56.696;13.002;2023-08-20T06:05:14;18.70;99.90
15072;DHT22;7635;56.696;13.002;2023-08-20T06:07:41;18.70;99.90
15072;DHT22;7635;56.696;13.002;2023-08-20T06:10:08;18.70;99.90
15072;DHT22;7635;56.696;13.002;2023-08-20T06:12:35;18.70;99.90
15072;DHT22;7635;56.696;13.002;2023-08-20T06:15:02;18.70;99.90
15072;DHT22;7635;56.696;13.002;2023-08-20T06:17:29;18.70;99.90
15072;DHT22;7635;56.696;13.002;2023-08-20T06:19:57;18.70;99.90
15072;DHT22;7635;56.696;13.002;2023-08-20T06:22:23;18.70;99.90
15072;DHT22;7635;56.696;13.002;2023-08-20T06:24:50;18.70;99.90
15072;DHT22;7635;56.696;13.002;2023-08-20T06:27:17;18.80;99.90
15072;DHT22;7635;56.696;13.002;2023-08-20T06:29:44;18.80;99.90
15072;DHT22;7635;56.696;13.002;2023-08-20T06:32:11;18.80;99.90
15072;DHT22;7635;56.696;13.002;2023-08-20T06:34:37;18.80;99.90
15072;DHT22;7635;56.696;13.002;2023-08-20T06:37:05;18.80;99.90
15072;DHT22;7635;56.696;13.002;2023-08-20T06:39:32;18.80;99.90
15072;DHT22;7635;56.696;13.002;2023-08-20T06:41:59;18.80;99.90
15072;DHT22;7635;56.696;13.002;2023-08-20T06:44:25;18.80;99.90
15072;DHT22;7635;56.696;13.002;2023-08-20T06:46:52;18.80;99.90
15072;DHT22;7635;56.696;13.002;2023-08-20T06:49:19;18.80;99.90
15072;DHT22;7635;56.696;13.002;2023-08-20T06:51:45;18.80;99.90
15072;DHT22;7635;56.696;13.002;2023-08-20T06:54:14;18.80;99.90
15072;DHT22;7635;56.696;13.002;2023-08-20T06:56:41;18.80;99.90
15072;DHT22;7635;56.696;13.002;2023-08-20T06:59:08;18.80;99.90
15072;DHT22;7635;56.696;13.002;2023-08-20T07:01:35;18.80;99.90
15072;DHT22;7635;56.696;13.002;2023-08-20T07:04:02;18.80;99.90
15072;DHT22;7635;56.696;13.002;2023-08-20T07:06:29;18.80;99.90
15072;DHT22;7635;56.696;13.002;2023-08-20T07:08:55;18.80;99.90
15072;DHT22;7635;56.696;13.002;2023-08-20T07:11:23;18.80;99.90
15072;DHT22;7635;56.696;13.002;2023-08-20T07:13:50;18.80;99.90
15072;DHT22;7635;56.696;13.002;2023-08-20T07:16:17;18.80;99.90
15072;DHT22;7635;56.696;13.002;2023-08-20T07:18:44;18.80;99.90
15072;DHT22;7635;56.696;13.002;2023-08-20T07:21:10;18.80;99.90
15072;DHT22;7635;56.696;13.002;2023-08-20T07:23:37;18.80;99.90
15072;DHT22;7635;56.696;13.002;2023-08-20T07:26:05;18.80;99.90
15072;DHT22;7635;56.696;13.002;2023-08-20T07:28:34;18.80;99.90
15072;DHT22;7635;56.696;13.002;2023-08-20T07:31:19;18.80;99.90
15072;DHT22;7635;56.696;13.002;2023-08-20T07:33:46;18.80;99.90
15072;DHT22;7635;56.696;13.002;2023-08-20T07:36:13;18.80;99.90
15072;DHT22;7635;56.696;13.002;2023-08-20T07:38:40;18.80;99.90
15072;DHT22;7635;56.696;13.002;2023-08-20T07:41:08;18.80;99.90
15072;DHT22;7635;56.696;13.002;2023-08-20T07:43:37;18.80;99.90
15072;DHT22;7635;56.696;13.002;2023-08-20T07:46:03;18.80;99.90
15072;DHT22;7635;56.696;13.002;2023-08-20T07:48:30;18.80;99.90
15072;DHT22;7635;56.696;13.002;2023-08-20T07:50:57;18.80;99.90
15072;DHT22;7635;56.696;13.002;2023-08-20T07:53:24;18.90;99.90
15072;DHT22;7635;56.696;13.002;2023-08-20T07:55:50;18.90;99.90
15072;DHT22;7635;56.696;13.002;2023-08-20T07:58:17;18.90;99.90
15072;DHT22;7635;56.696;13.002;2023-08-20T08:00:45;18.90;99.90
15072;DHT22;7635;56.696;13.002;2023-08-20T08:03:12;18.90;99.90
15072;DHT22;7635;56.696;13.002;2023-08-20T08:05:40;19.00;99.90
15072;DHT22;7635;56.696;13.002;2023-08-20T08:08:06;19.00;99.90
15072;DHT22;7635;56.696;13.002;2023-08-20T08:10:33;19.00;99.90
15072;DHT22;7635;56.696;13.002;2023-08-20T08:13:00;19.00;99.90
15072;DHT22;7635;56.696;13.002;2023-08-20T08:15:26;19.00;99.90
15072;DHT22;7635;56.696;13.002;2023-08-20T08:17:54;19.00;99.90
15072;DHT22;7635;56.696;13.002;2023-08-20T08:20:21;19.00;99.90
15072;DHT22;7635;56.696;13.002;2023-08-20T08:22:48;19.00;99.90
15072;DHT22;7635;56.696;13.002;2023-08-20T08:25:15;19.00;99.90
15072;DHT22;7635;56.696;13.002;2023-08-20T08:27:42;19.00;99.90
15072;DHT22;7635;56.696;13.002;2023-08-20T08:30:09;19.10;99.90
15072;DHT22;7635;56.696;13.002;2023-08-20T08:32:36;19.10;99.90
15072;DHT22;7635;56.696;13.002;2023-08-20T08:35:04;19.10;99.90
15072;DHT22;7635;56.696;13.002;2023-08-20T08:37:31;19.10;99.90
15072;DHT22;7635;56.696;13.002;2023-08-20T08:39:58;19.10;99.90
15072;DHT22;7635;56.696;13.002;2023-08-20T08:42:25;19.10;99.90
15072;DHT22;7635;56.696;13.002;2023-08-20T08:44:52;19.10;99.90
15072;DHT22;7635;56.696;13.002;2023-08-20T08:47:21;19.20;99.90
15072;DHT22;7635;56.696;13.002;2023-08-20T08:49:48;19.20;99.90
15072;DHT22;7635;56.696;13.002;2023-08-20T08:52:16;19.20;99.90
15072;DHT22;7635;56.696;13.002;2023-08-20T08:54:43;19.20;99.90
15072;DHT22;7635;56.696;13.002;2023-08-20T08:57:10;19.20;99.90
15072;DHT22;7635;56.696;13.002;2023-08-20T08:59:37;19.20;99.90
15072;DHT22;7635;56.696;13.002;2023-08-20T09:02:08;19.20;99.90
15072;DHT22;7635;56.696;13.002;2023-08-20T09:04:38;19.20;99.90
15072;DHT22;7635;56.696;13.002;2023-08-20T09:07:06;19.20;99.90
15072;DHT22;7635;56.696;13.002;2023-08-20T09:09:42;19.30;99.90
15072;DHT22;7635;56.696;13.002;2023-08-20T09:12:13;19.30;99.90
15072;DHT22;7635;56.696;13.002;2023-08-20T09:14:45;19.30;99.90
15072;DHT22;7635;56.696;13.002;2023-08-20T09:17:11;19.20;99.90
15072;DHT22;7635;56.696;13.002;2023-08-20T09:19:38;19.20;99.90
15072;DHT22;7635;56.696;13.002;2023-08-20T09:22:05;19.20;99.90
15072;DHT22;7635;56.696;13.002;2023-08-20T09:24:33;19.20;99.90
15072;DHT22;7635;56.696;13.002;2023-08-20T09:27:04;19.20;99.90
15072;DHT22;7635;56.696;13.002;2023-08-20T09:29:32;19.20;99.90
15072;DHT22;7635;56.696;13.002;2023-08-20T09:32:02;19.20;99.90
15072;DHT22;7635;56.696;13.002;2023-08-20T09:34:36;19.20;99.90
15072;DHT22;7635;56.696;13.002;2023-08-20T09:37:05;19.20;99.90
15072;DHT22;7635;56.696;13.002;2023-08-20T09:39:33;19.20;99.90
15072;DHT22;7635;56.696;13.002;2023-08-20T09:42:01;19.20;99.90
15072;DHT22;7635;56.696;13.002;2023-08-20T09:44:33;19.20;99.90
15072;DHT22;7635;56.696;13.002;2023-08-20T09:47:01;19.20;99.90
15072;DHT22;7635;56.696;13.002;2023-08-20T09:49:30;19.20;99.90
15072;DHT22;7635;56.696;13.002;2023-08-20T09:52:00;19.20;99.90
15072;DHT22;7635;56.696;13.002;2023-08-20T09:54:40;19.20;99.90
15072;DHT22;7635;56.696;13.002;2023-08-20T09:57:30;19.20;99.90
15072;DHT22;7635;56.696;13.002;2023-08-20T10:00:00;19.20;99.90
15072;DHT22;7635;56.696;13.002;2023-08-20T10:02:28;19.20;99.90
15072;DHT22;7635;56.696;13.002;2023-08-20T10:04:55;19.20;99.90
15072;DHT22;7635;56.696;13.002;2023-08-20T10:07:22;19.20;99.90
15072;DHT22;7635;56.696;13.002;2023-08-20T10:09:51;19.20;99.90
15072;DHT22;7635;56.696;13.002;2023-08-20T10:12:18;19.10;99.90
15072;DHT22;7635;56.696;13.002;2023-08-20T10:14:45;19.10;99.90
15072;DHT22;7635;56.696;13.002;2023-08-20T10:17:13;19.10;99.90
15072;DHT22;7635;56.696;13.002;2023-08-20T10:19:41;19.10;99.90
15072;DHT22;7635;56.696;13.002;2023-08-20T10:22:08;19.00;99.90
15072;DHT22;7635;56.696;13.002;2023-08-20T10:24:41;19.00;99.90
15072;DHT22;7635;56.696;13.002;2023-08-20T10:27:13;19.00;99.90
15072;DHT22;7635;56.696;13.002;2023-08-20T10:29:49;19.00;99.90
15072;DHT22;7635;56.696;13.002;2023-08-20T10:32:17;19.00;99.90
15072;DHT22;7635;56.696;13.002;2023-08-20T10:34:50;19.00;99.90
15072;DHT22;7635;56.696;13.002;2023-08-20T10:37:26;19.10;99.90
15072;DHT22;7635;56.696;13.002;2023-08-20T10:39:54;19.10;99.90
15072;DHT22;7635;56.696;13.002;2023-08-20T10:42:27;19.10;99.90
15072;DHT22;7635;56.696;13.002;2023-08-20T10:45:02;19.10;99.90
15072;DHT22;7635;56.696;13.002;2023-08-20T10:47:42;19.10;99.90
15072;DHT22;7635;56.696;13.002;2023-08-20T10:50:09;19.10;99.90
15072;DHT22;7635;56.696;13.002;2023-08-20T10:52:39;19.10;99.90
15072;DHT22;7635;56.696;13.002;2023-08-20T10:55:07;19.10;99.90
15072;DHT22;7635;56.696;13.002;2023-08-20T10:57:35;19.10;99.90
15072;DHT22;7635;56.696;13.002;2023-08-20T11:00:04;19.00;99.90
15072;DHT22;7635;56.696;13.002;2023-08-20T11:02:38;19.00;99.90
15072;DHT22;7635;56.696;13.002;2023-08-20T11:05:16;19.00;99.90
15072;DHT22;7635;56.696;13.002;2023-08-20T11:07:45;19.00;99.90
15072;DHT22;7635;56.696;13.002;2023-08-20T11:10:13;19.00;99.90
15072;DHT22;7635;56.696;13.002;2023-08-20T11:12:41;19.00;99.90
15072;DHT22;7635;56.696;13.002;2023-08-20T11:15:09;19.00;99.90
15072;DHT22;7635;56.696;13.002;2023-08-20T11:17:41;19.10;99.90
15072;DHT22;7635;56.696;13.002;2023-08-20T11:20:09;19.10;99.90
15072;DHT22;7635;56.696;13.002;2023-08-20T11:22:38;19.20;99.90
15072;DHT22;7635;56.696;13.002;2023-08-20T11:25:05;19.10;99.90
15072;DHT22;7635;56.696;13.002;2023-08-20T11:27:32;19.20;99.90
15072;DHT22;7635;56.696;13.002;2023-08-20T11:30:00;19.20;99.90
15072;DHT22;7635;56.696;13.002;2023-08-20T11:32:27;19.20;99.90
15072;DHT22;7635;56.696;13.002;2023-08-20T11:34:55;19.20;99.90
15072;DHT22;7635;56.696;13.002;2023-08-20T11:37:22;19.20;99.90
15072;DHT22;7635;56.696;13.002;2023-08-20T11:39:49;19.30;99.90
15072;DHT22;7635;56.696;13.002;2023-08-20T11:42:16;19.40;99.90
15072;DHT22;7635;56.696;13.002;2023-08-20T11:44:43;19.40;99.90
15072;DHT22;7635;56.696;13.002;2023-08-20T11:47:13;19.50;99.90
15072;DHT22;7635;56.696;13.002;2023-08-20T11:49:40;19.50;99.90
15072;DHT22;7635;56.696;13.002;2023-08-20T11:52:08;19.50;99.90
15072;DHT22;7635;56.696;13.002;2023-08-20T11:54:35;19.60;99.90
15072;DHT22;7635;56.696;13.002;2023-08-20T11:57:03;19.60;99.90
15072;DHT22;7635;56.696;13.002;2023-08-20T11:59:30;19.70;99.90
15072;DHT22;7635;56.696;13.002;2023-08-20T12:01:58;19.70;99.90
15072;DHT22;7635;56.696;13.002;2023-08-20T12:04:28;19.80;99.90
15072;DHT22;7635;56.696;13.002;2023-08-20T12:07:02;19.80;99.90
15072;DHT22;7635;56.696;13.002;2023-08-20T12:09:32;19.70;99.90
15072;DHT22;7635;56.696;13.002;2023-08-20T12:12:00;19.70;99.90
15072;DHT22;7635;56.696;13.002;2023-08-20T12:14:28;19.70;99.90
15072;DHT22;7635;56.696;13.002;2023-08-20T12:16:55;19.70;99.90
15072;DHT22;7635;56.696;13.002;2023-08-20T12:19:21;19.70;99.90
15072;DHT22;7635;56.696;13.002;2023-08-20T12:21:48;19.70;99.90
15072;DHT22;7635;56.696;13.002;2023-08-20T12:24:15;19.60;99.90
15072;DHT22;7635;56.696;13.002;2023-08-20T12:26:45;19.60;99.90
15072;DHT22;7635;56.696;13.002;2023-08-20T12:29:12;19.60;99.90
15072;DHT22;7635;56.696;13.002;2023-08-20T12:31:40;19.50;99.90
15072;DHT22;7635;56.696;13.002;2023-08-20T12:34:07;19.50;99.90
15072;DHT22;7635;56.696;13.002;2023-08-20T12:36:35;19.50;99.90
15072;DHT22;7635;56.696;13.002;2023-08-20T12:39:01;19.50;99.90
15072;DHT22;7635;56.696;13.002;2023-08-20T12:41:29;19.50;99.90
15072;DHT22;7635;56.696;13.002;2023-08-20T12:43:57;19.40;99.90
15072;DHT22;7635;56.696;13.002;2023-08-20T12:46:24;19.40;99.90
15072;DHT22;7635;56.696;13.002;2023-08-20T12:48:51;19.40;99.90
15072;DHT22;7635;56.696;13.002;2023-08-20T12:51:18;19.40;99.90
15072;DHT22;7635;56.696;13.002;2023-08-20T12:53:44;19.40;99.90
15072;DHT22;7635;56.696;13.002;2023-08-20T12:56:11;19.40;99.90
15072;DHT22;7635;56.696;13.002;2023-08-20T12:58:38;19.40;99.90
15072;DHT22;7635;56.696;13.002;2023-08-20T13:01:06;19.40;99.90
15072;DHT22;7635;56.696;13.002;2023-08-20T13:03:34;19.40;99.90
15072;DHT22;7635;56.696;13.002;2023-08-20T13:06:01;19.30;99.90
15072;DHT22;7635;56.696;13.002;2023-08-20T13:08:28;19.40;99.90
15072;DHT22;7635;56.696;13.002;2023-08-20T13:10:57;19.40;99.90
15072;DHT22;7635;56.696;13.002;2023-08-20T13:13:24;19.40;99.90
15072;DHT22;7635;56.696;13.002;2023-08-20T13:15:53;19.40;99.90
15072;DHT22;7635;56.696;13.002;2023-08-20T13:18:22;19.50;99.90
15072;DHT22;7635;56.696;13.002;2023-08-20T13:20:51;19.50;99.90
15072;DHT22;7635;56.696;13.002;2023-08-20T13:23:18;19.50;99.90
15072;DHT22;7635;56.696;13.002;2023-08-20T13:25:44;19.60;99.90
15072;DHT22;7635;56.696;13.002;2023-08-20T13:28:11;19.60;99.90
15072;DHT22;7635;56.696;13.002;2023-08-20T13:30:38;19.60;99.90
15072;DHT22;7635;56.696;13.002;2023-08-20T13:33:05;19.70;99.90
15072;DHT22;7635;56.696;13.002;2023-08-20T13:35:34;19.70;99.90
15072;DHT22;7635;56.696;13.002;2023-08-20T13:38:00;19.70;99.90
15072;DHT22;7635;56.696;13.002;2023-08-20T13:40:28;19.70;99.90
15072;DHT22;7635;56.696;13.002;2023-08-20T13:42:55;19.80;99.90
15072;DHT22;7635;56.696;13.002;2023-08-20T13:45:21;19.90;99.90
15072;DHT22;7635;56.696;13.002;2023-08-20T13:47:48;19.80;99.90
15072;DHT22;7635;56.696;13.002;2023-08-20T13:50:15;19.80;99.90
15072;DHT22;7635;56.696;13.002;2023-08-20T13:52:43;19.80;99.90
15072;DHT22;7635;56.696;13.002;2023-08-20T13:55:10;19.80;99.90
15072;DHT22;7635;56.696;13.002;2023-08-20T13:57:36;19.80;99.90
15072;DHT22;7635;56.696;13.002;2023-08-20T14:00:04;19.70;99.90
15072;DHT22;7635;56.696;13.002;2023-08-20T14:02:35;19.60;99.90
15072;DHT22;7635;56.696;13.002;2023-08-20T14:05:02;19.60;99.90
15072;DHT22;7635;56.696;13.002;2023-08-20T14:07:29;19.70;99.90
15072;DHT22;7635;56.696;13.002;2023-08-20T14:09:59;19.70;99.90
15072;DHT22;7635;56.696;13.002;2023-08-20T14:12:26;19.70;99.90
15072;DHT22;7635;56.696;13.002;2023-08-20T14:14:52;19.80;99.90
15072;DHT22;7635;56.696;13.002;2023-08-20T14:17:19;19.80;99.90
15072;DHT22;7635;56.696;13.002;2023-08-20T14:19:46;19.80;99.90
15072;DHT22;7635;56.696;13.002;2023-08-20T14:22:13;19.90;99.90
15072;DHT22;7635;56.696;13.002;2023-08-20T14:24:39;19.90;99.90
15072;DHT22;7635;56.696;13.002;2023-08-20T14:27:07;19.90;99.90
15072;DHT22;7635;56.696;13.002;2023-08-20T14:29:34;19.90;99.90
15072;DHT22;7635;56.696;13.002;2023-08-20T14:32:01;19.90;99.90
15072;DHT22;7635;56.696;13.002;2023-08-20T14:34:28;20.00;99.90
15072;DHT22;7635;56.696;13.002;2023-08-20T14:36:55;19.90;99.90
15072;DHT22;7635;56.696;13.002;2023-08-20T14:39:21;19.90;99.90
15072;DHT22;7635;56.696;13.002;2023-08-20T14:41:49;20.00;99.90
15072;DHT22;7635;56.696;13.002;2023-08-20T14:44:17;20.00;99.90
15072;DHT22;7635;56.696;13.002;2023-08-20T14:46:43;20.00;99.90
15072;DHT22;7635;56.696;13.002;2023-08-20T14:49:10;20.00;99.90
15072;DHT22;7635;56.696;13.002;2023-08-20T14:51:37;20.00;99.90
15072;DHT22;7635;56.696;13.002;2023-08-20T14:54:04;20.00;99.90
15072;DHT22;7635;56.696;13.002;2023-08-20T14:56:31;20.00;99.90
15072;DHT22;7635;56.696;13.002;2023-08-20T14:58:57;20.00;99.90
15072;DHT22;7635;56.696;13.002;2023-08-20T15:01:26;20.00;99.90
15072;DHT22;7635;56.696;13.002;2023-08-20T15:03:52;20.00;99.90
15072;DHT22;7635;56.696;13.002;2023-08-20T15:06:19;20.10;99.90
15072;DHT22;7635;56.696;13.002;2023-08-20T15:08:47;20.10;99.90
15072;DHT22;7635;56.696;13.002;2023-08-20T15:11:14;20.10;99.90
15072;DHT22;7635;56.696;13.002;2023-08-20T15:13:41;20.10;99.90
15072;DHT22;7635;56.696;13.002;2023-08-20T15:16:07;20.10;99.90
15072;DHT22;7635;56.696;13.002;2023-08-20T15:18:35;20.10;99.90
15072;DHT22;7635;56.696;13.002;2023-08-20T15:21:02;20.10;99.90
15072;DHT22;7635;56.696;13.002;2023-08-20T15:23:29;20.10;99.90
15072;DHT22;7635;56.696;13.002;2023-08-20T15:25:57;20.00;99.90
15072;DHT22;7635;56.696;13.002;2023-08-20T15:28:25;20.00;99.90
15072;DHT22;7635;56.696;13.002;2023-08-20T15:30:53;20.00;99.90
15072;DHT22;7635;56.696;13.002;2023-08-20T15:33:20;20.00;99.90